Time;durP1;ratioP1;P1;durP2;ratioP2;P2;SDS_P1;SDS_P2;PMS_P1;PMS_P2;Temp;Humidity;BMP_temperature;BMP_pressure;BME280_temperature;BME280_humidity;BME280_pressure;Samples;Min_cycle;Max_cycle;Signal;HPM_P1;HPM_P2
2023/05/25 00:00:59;;;;;;;8.95;3.13;;;14.00;99.90;;;;;;4173758;28;20051;-63
2023/05/25 00:03:02;;;;;;;7.15;2.83;;;14.00;99.90;;;;;;4177354;28;20037;-63
2023/05/25 00:05:03;;;;;;;6.55;2.50;;;14.00;99.90;;;;;;4176074;28;20036;-64
2023/05/25 00:07:03;;;;;;;6.13;2.40;;;14.00;99.90;;;;;;4176411;28;20489;-63
2023/05/25 00:09:04;;;;;;;5.05;2.55;;;14.00;99.90;;;;;;4175394;28;20064;-63
2023/05/25 00:11:05;;;;;;;7.72;2.85;;;14.00;99.90;;;;;;4176247;28;20041;-63
2023/05/25 00:13:05;;;;;;;7.03;3.00;;;14.00;99.90;;;;;;4191160;28;20060;-63
2023/05/25 00:15:06;;;;;;;4.57;2.75;;;14.00;99.90;;;;;;4175478;28;20106;-63
2023/05/25 00:17:09;;;;;;;6.95;2.80;;;14.00;99.90;;;;;;4176241;28;20427;-63
2023/05/25 00:19:10;;;;;;;6.50;2.72;;;13.90;99.90;;;;;;4171611;28;20056;-62
2023/05/25 00:21:10;;;;;;;6.05;2.90;;;13.90;99.90;;;;;;4172777;28;20037;-63
2023/05/25 00:23:11;;;;;;;8.13;2.40;;;13.90;99.90;;;;;;4176966;28;20124;-63
2023/05/25 00:25:12;;;;;;;6.57;2.63;;;13.80;99.90;;;;;;4176047;28;20469;-63
2023/05/25 00:27:12;;;;;;;4.93;2.60;;;13.80;99.90;;;;;;4177131;28;20068;-63
2023/05/25 00:29:13;;;;;;;5.45;2.58;;;13.80;99.90;;;;;;4176817;28;20376;-63
2023/05/25 00:31:14;;;;;;;5.70;2.83;;;13.80;99.90;;;;;;4170601;28;20045;-63
2023/05/25 00:33:15;;;;;;;4.72;2.70;;;13.80;99.90;;;;;;4175218;28;20025;-63
2023/05/25 00:35:15;;;;;;;6.07;2.78;;;13.80;99.90;;;;;;4174302;28;20036;-63
2023/05/25 00:37:16;;;;;;;6.78;3.15;;;13.80;99.90;;;;;;4177101;28;20037;-63
2023/05/25 00:39:18;;;;;;;7.28;2.90;;;13.80;99.90;;;;;;4177581;28;20052;-63
2023/05/25 00:41:19;;;;;;;5.30;2.37;;;13.70;99.90;;;;;;4172458;28;20048;-63
2023/05/25 00:43:20;;;;;;;4.47;2.70;;;13.70;99.90;;;;;;4177446;28;20021;-64
2023/05/25 00:45:20;;;;;;;10.27;2.78;;;13.70;99.90;;;;;;4174557;28;20384;-63
2023/05/25 00:47:21;;;;;;;6.03;2.83;;;13.70;99.90;;;;;;4176943;28;20048;-63
2023/05/25 00:49:22;;;;;;;9.15;2.97;;;13.70;99.90;;;;;;4178292;28;20025;-63
2023/05/25 00:51:24;;;;;;;7.57;3.15;;;13.70;99.90;;;;;;4175551;28;20036;-63
2023/05/25 00:53:25;;;;;;;6.82;2.78;;;13.70;99.90;;;;;;4178476;28;20060;-63
2023/05/25 00:55:28;;;;;;;4.60;2.55;;;13.60;99.90;;;;;;4175967;28;20029;-63
2023/05/25 00:57:32;;;;;;;6.32;2.63;;;13.60;99.90;;;;;;4177081;28;20037;-63
2023/05/25 00:59:42;;;;;;;15.93;2.80;;;13.50;99.90;;;;;;4176182;28;20037;-63
2023/05/25 01:01:45;;;;;;;6.25;2.50;;;13.50;99.90;;;;;;4173954;28;20079;-63
2023/05/25 01:03:52;;;;;;;;;;;13.50;99.90;;;;;;4174727;28;20029;-63
2023/05/25 01:05:54;;;;;;;8.60;3.33;;;13.50;99.90;;;;;;4173499;28;20364;-63
2023/05/25 01:08:02;;;;;;;7.00;3.13;;;13.40;99.90;;;;;;4177991;28;21342;-63
2023/05/25 01:10:08;;;;;;;5.45;2.70;;;13.40;99.90;;;;;;4173978;28;20047;-64
2023/05/25 01:12:10;;;;;;;6.32;3.22;;;13.40;99.90;;;;;;4176318;28;20036;-63
2023/05/25 01:14:12;;;;;;;5.53;3.28;;;13.40;99.90;;;;;;4175406;28;20033;-63
2023/05/25 01:16:15;;;;;;;6.38;3.13;;;13.40;99.90;;;;;;4172171;28;20499;-63
2023/05/25 01:18:16;;;;;;;5.97;2.75;;;13.40;99.90;;;;;;4172610;28;20033;-63
2023/05/25 01:20:17;;;;;;;6.93;3.45;;;13.40;99.90;;;;;;4170432;28;20053;-63
2023/05/25 01:22:31;;;;;;;5.53;2.80;;;13.40;99.90;;;;;;4173783;28;20053;-63
2023/05/25 01:25:01;;;;;;;8.30;3.90;;;13.40;99.90;;;;;;4170937;28;20025;-63
2023/05/25 01:27:11;;;;;;;7.40;3.28;;;13.40;99.90;;;;;;4170771;28;20025;-63
2023/05/25 01:29:13;;;;;;;8.57;3.60;;;13.40;99.90;;;;;;4170859;28;20144;-62
2023/05/25 01:31:15;;;;;;;6.97;3.60;;;13.30;99.90;;;;;;4170962;28;20030;-63
2023/05/25 01:33:19;;;;;;;8.77;3.67;;;13.30;99.90;;;;;;4174306;28;20112;-63
2023/05/25 01:35:21;;;;;;;5.65;3.28;;;13.30;99.90;;;;;;4175365;28;20037;-63
2023/05/25 01:37:23;;;;;;;9.10;3.67;;;13.30;99.90;;;;;;4175920;28;20028;-63
2023/05/25 01:39:24;;;;;;;5.47;3.20;;;13.30;99.90;;;;;;4173311;28;20152;-63
2023/05/25 01:41:25;;;;;;;6.72;3.20;;;13.30;99.90;;;;;;4172565;28;20420;-63
2023/05/25 01:43:26;;;;;;;6.43;3.30;;;13.30;99.90;;;;;;4171245;28;20053;-63
2023/05/25 01:45:27;;;;;;;7.03;3.13;;;13.20;99.90;;;;;;4172514;28;20037;-63
2023/05/25 01:47:36;;;;;;;8.18;3.53;;;13.20;99.90;;;;;;4172711;28;20056;-63
2023/05/25 01:49:56;;;;;;;7.63;3.50;;;13.20;99.90;;;;;;4173955;28;20484;-63
2023/05/25 01:52:25;;;;;;;7.13;3.65;;;13.10;99.90;;;;;;4171245;28;20487;-63
2023/05/25 01:54:35;;;;;;;5.97;2.97;;;13.10;99.90;;;;;;4170754;28;20124;-63
2023/05/25 01:56:37;;;;;;;6.18;3.63;;;13.10;99.90;;;;;;4172041;28;20048;-63
2023/05/25 01:58:41;;;;;;;8.57;3.17;;;13.10;99.90;;;;;;4173669;28;20048;-63
2023/05/25 02:00:42;;;;;;;6.57;3.25;;;13.00;99.90;;;;;;4172393;28;20492;-62
2023/05/25 02:02:44;;;;;;;7.68;3.53;;;13.00;99.90;;;;;;4172525;28;21612;-62
2023/05/25 02:04:45;;;;;;;7.90;3.58;;;12.90;99.90;;;;;;4176876;28;20043;-63
2023/05/25 02:06:50;;;;;;;7.78;3.35;;;13.00;99.90;;;;;;4169561;28;20094;-62
2023/05/25 02:08:51;;;;;;;7.78;3.53;;;12.90;99.90;;;;;;4171350;28;20037;-63
2023/05/25 02:10:52;;;;;;;7.18;3.40;;;12.90;99.90;;;;;;4173481;28;20113;-63
2023/05/25 02:12:52;;;;;;;5.90;3.40;;;12.90;99.90;;;;;;4175095;28;20044;-63
2023/05/25 02:14:53;;;;;;;7.60;3.40;;;12.90;99.90;;;;;;4170978;28;20110;-63
2023/05/25 02:16:53;;;;;;;8.80;3.33;;;12.80;99.90;;;;;;4173911;28;20033;-63
2023/05/25 02:18:56;;;;;;;8.75;3.60;;;12.90;99.90;;;;;;4175766;28;20430;-63
2023/05/25 02:20:57;;;;;;;7.07;3.20;;;12.80;99.90;;;;;;4175577;28;20025;-63
2023/05/25 02:22:57;;;;;;;7.80;3.63;;;12.80;99.90;;;;;;4173881;28;20033;-63
2023/05/25 02:24:58;;;;;;;6.88;3.45;;;12.80;99.90;;;;;;4176160;28;20124;-63
2023/05/25 02:27:00;;;;;;;7.68;3.25;;;12.70;99.90;;;;;;4171721;28;20033;-63
2023/05/25 02:29:02;;;;;;;8.38;4.15;;;12.60;99.90;;;;;;4173835;28;20029;-63
2023/05/25 02:31:02;;;;;;;8.50;3.70;;;12.30;99.90;;;;;;4172954;28;20044;-63
2023/05/25 02:33:03;;;;;;;7.85;3.70;;;12.30;99.90;;;;;;4175406;28;20033;-63
2023/05/25 02:35:04;;;;;;;6.78;3.33;;;12.20;99.90;;;;;;4175596;28;20037;-64
2023/05/25 02:37:04;;;;;;;8.98;3.75;;;12.20;99.90;;;;;;4174721;28;20124;-63
2023/05/25 02:39:05;;;;;;;7.88;3.72;;;12.00;99.90;;;;;;4175326;28;20039;-62
2023/05/25 02:41:05;;;;;;;10.82;4.00;;;11.90;99.90;;;;;;4168064;28;20591;-62
2023/05/25 02:43:06;;;;;;;6.47;3.33;;;11.70;99.90;;;;;;4174319;28;20496;-63
2023/05/25 02:45:11;;;;;;;10.95;4.20;;;11.60;99.90;;;;;;4170543;28;20480;-63
2023/05/25 02:47:16;;;;;;;7.70;3.40;;;11.60;99.90;;;;;;4174344;28;20025;-62
2023/05/25 02:49:17;;;;;;;7.97;3.10;;;11.70;99.90;;;;;;4172577;28;20037;-63
2023/05/25 02:51:18;;;;;;;6.90;3.03;;;11.70;99.90;;;;;;4173811;28;20361;-63
2023/05/25 02:53:18;;;;;;;7.88;3.55;;;11.80;99.90;;;;;;4175805;28;20488;-62
2023/05/25 02:55:19;;;;;;;5.60;3.17;;;11.80;99.90;;;;;;4177591;28;20104;-63
2023/05/25 02:57:20;;;;;;;5.53;3.28;;;11.90;99.90;;;;;;4177820;28;20040;-63
2023/05/25 02:59:20;;;;;;;6.45;3.50;;;11.90;99.90;;;;;;4174732;28;20455;-63
2023/05/25 03:01:24;;;;;;;8.60;3.50;;;11.90;99.90;;;;;;4175533;28;20052;-63
2023/05/25 03:03:25;;;;;;;9.40;3.47;;;12.00;99.90;;;;;;4177270;28;20123;-63
2023/05/25 03:05:26;;;;;;;9.77;3.63;;;12.00;99.90;;;;;;4178045;28;20041;-63
2023/05/25 03:07:27;;;;;;;9.98;3.80;;;12.00;99.90;;;;;;4177140;28;20033;-63
2023/05/25 03:09:27;;;;;;;6.53;3.28;;;12.00;99.90;;;;;;4178436;28;20540;-63
2023/05/25 03:11:28;;;;;;;8.90;3.35;;;12.10;99.90;;;;;;4176263;28;20048;-63
2023/05/25 03:13:29;;;;;;;6.78;3.13;;;12.10;99.90;;;;;;4174216;28;20050;-63
2023/05/25 03:15:30;;;;;;;7.40;3.22;;;12.10;99.90;;;;;;4175949;28;20437;-63
2023/05/25 03:17:30;;;;;;;9.77;3.25;;;12.10;99.90;;;;;;4175776;28;20021;-64
2023/05/25 03:19:32;;;;;;;8.18;3.50;;;12.10;99.90;;;;;;4177057;28;20071;-63
2023/05/25 03:21:32;;;;;;;6.05;3.33;;;12.10;99.90;;;;;;4177805;28;20480;-63
2023/05/25 03:23:33;;;;;;;8.52;3.72;;;12.10;99.90;;;;;;4178279;28;20116;-63
2023/05/25 03:25:34;;;;;;;6.10;3.50;;;12.10;99.90;;;;;;4176817;28;20131;-63
2023/05/25 03:27:34;;;;;;;11.75;4.50;;;12.10;99.90;;;;;;4176319;28;20098;-63
2023/05/25 03:29:35;;;;;;;6.55;3.45;;;12.10;99.90;;;;;;4176747;28;20036;-63
2023/05/25 03:31:36;;;;;;;7.07;3.60;;;12.10;99.90;;;;;;4174162;28;20124;-63
2023/05/25 03:33:37;;;;;;;7.70;4.18;;;12.10;99.90;;;;;;4175111;28;20156;-63
2023/05/25 03:35:37;;;;;;;5.30;3.38;;;12.10;99.90;;;;;;4177889;28;20044;-62
2023/05/25 03:37:38;;;;;;;8.70;3.45;;;12.10;99.90;;;;;;4176726;28;20028;-62
2023/05/25 03:39:38;;;;;;;8.18;3.55;;;12.20;99.90;;;;;;4178435;28;20029;-63
2023/05/25 03:41:39;;;;;;;9.18;4.07;;;12.20;99.90;;;;;;4173520;28;20090;-62
2023/05/25 03:43:39;;;;;;;8.95;4.28;;;12.20;99.90;;;;;;4177156;28;20091;-62
2023/05/25 03:45:40;;;;;;;8.70;3.90;;;12.20;99.90;;;;;;4174033;28;20094;-63
2023/05/25 03:47:41;;;;;;;8.77;3.58;;;12.20;99.90;;;;;;4175152;28;20519;-63
2023/05/25 03:49:41;;;;;;;10.75;3.95;;;12.20;99.90;;;;;;4176043;28;20038;-62
2023/05/25 03:51:42;;;;;;;6.43;3.55;;;12.20;99.90;;;;;;4177769;28;20048;-63
2023/05/25 03:53:43;;;;;;;7.75;3.90;;;12.20;99.90;;;;;;4177712;28;20029;-63
2023/05/25 03:55:44;;;;;;;7.70;4.15;;;12.20;99.90;;;;;;4175761;28;20029;-62
2023/05/25 03:57:44;;;;;;;11.70;4.32;;;12.20;99.90;;;;;;4177563;28;20039;-63
2023/05/25 03:59:45;;;;;;;10.48;4.25;;;12.20;99.90;;;;;;4177213;28;20447;-63
2023/05/25 04:01:46;;;;;;;8.10;4.15;;;12.20;99.90;;;;;;4173895;28;20630;-63
2023/05/25 04:03:46;;;;;;;6.82;3.97;;;12.20;99.90;;;;;;4176113;28;20037;-62
2023/05/25 04:05:47;;;;;;;8.77;3.75;;;12.20;99.90;;;;;;4176274;28;20029;-62
2023/05/25 04:07:48;;;;;;;9.05;3.95;;;12.20;99.90;;;;;;4178087;28;20029;-62
2023/05/25 04:09:48;;;;;;;11.13;3.97;;;12.20;99.90;;;;;;4177747;28;20033;-63
2023/05/25 04:11:49;;;;;;;12.00;3.65;;;12.20;99.90;;;;;;4176287;28;20029;-63
2023/05/25 04:13:50;;;;;;;5.75;3.70;;;12.20;99.90;;;;;;4177014;28;20404;-62
2023/05/25 04:15:51;;;;;;;8.32;3.90;;;12.30;99.90;;;;;;4176626;28;20044;-63
2023/05/25 04:17:51;;;;;;;7.50;4.47;;;12.30;99.90;;;;;;4177303;28;20135;-63
2023/05/25 04:19:52;;;;;;;9.52;4.28;;;12.30;99.90;;;;;;4175044;28;20076;-62
2023/05/25 04:21:52;;;;;;;9.40;4.28;;;12.30;99.90;;;;;;4176655;28;20197;-65
2023/05/25 04:23:53;;;;;;;13.30;4.95;;;12.30;99.90;;;;;;4177508;28;20104;-63
2023/05/25 04:25:54;;;;;;;8.32;4.82;;;12.30;99.90;;;;;;4176152;28;20029;-63
2023/05/25 04:27:55;;;;;;;7.00;3.92;;;12.30;99.90;;;;;;4176669;28;20038;-63
2023/05/25 04:29:56;;;;;;;11.13;4.95;;;12.30;99.90;;;;;;4171851;28;20063;-62
2023/05/25 04:31:56;;;;;;;10.85;4.53;;;12.30;99.90;;;;;;4175746;28;20037;-63
2023/05/25 04:33:57;;;;;;;9.05;4.38;;;12.30;99.90;;;;;;4176728;28;20392;-63
2023/05/25 04:35:59;;;;;;;6.93;4.13;;;12.30;99.90;;;;;;4174078;28;20515;-63
2023/05/25 04:38:01;;;;;;;7.85;4.15;;;12.40;99.90;;;;;;4176946;28;20039;-62
2023/05/25 04:40:07;;;;;;;7.68;4.65;;;12.40;99.90;;;;;;4175894;28;20040;-63
2023/05/25 04:42:08;;;;;;;8.20;4.13;;;12.40;99.90;;;;;;4173721;28;20029;-63
2023/05/25 04:44:08;;;;;;;7.80;4.95;;;12.40;99.90;;;;;;4176862;28;20395;-62
2023/05/25 04:46:09;;;;;;;6.93;4.10;;;12.40;99.90;;;;;;4176014;28;20440;-62
2023/05/25 04:48:09;;;;;;;8.95;3.75;;;12.40;99.90;;;;;;4177446;28;20483;-62
2023/05/25 04:50:10;;;;;;;7.78;4.28;;;12.40;99.90;;;;;;4175389;28;20395;-63
2023/05/25 04:52:11;;;;;;;5.93;3.67;;;12.50;99.90;;;;;;4176436;28;20439;-62
2023/05/25 04:54:11;;;;;;;9.48;4.13;;;12.50;99.90;;;;;;4176396;28;20034;-63
2023/05/25 04:56:12;;;;;;;10.35;4.35;;;12.50;99.90;;;;;;4176010;28;20048;-63
2023/05/25 04:58:12;;;;;;;8.43;4.47;;;12.50;99.90;;;;;;4177066;28;20036;-63
2023/05/25 05:00:14;;;;;;;11.55;4.63;;;12.50;99.90;;;;;;4174128;28;20098;-63
2023/05/25 05:02:14;;;;;;;9.18;4.13;;;12.60;99.90;;;;;;4177348;28;20037;-63
2023/05/25 05:04:15;;;;;;;8.63;4.40;;;12.60;99.90;;;;;;4176509;28;20052;-63
2023/05/25 05:06:16;;;;;;;11.38;4.72;;;12.60;99.90;;;;;;4174290;28;20044;-62
2023/05/25 05:08:17;;;;;;;8.05;4.25;;;12.70;99.90;;;;;;4175159;28;20357;-63
2023/05/25 05:10:17;;;;;;;11.57;4.68;;;12.60;99.90;;;;;;4175711;28;20040;-63
2023/05/25 05:12:18;;;;;;;7.65;4.60;;;12.60;99.90;;;;;;4173730;28;20033;-63
2023/05/25 05:14:19;;;;;;;9.02;4.40;;;12.70;99.90;;;;;;4174650;28;20059;-62
2023/05/25 05:16:19;;;;;;;8.13;4.07;;;12.70;99.90;;;;;;4175347;28;20052;-62
2023/05/25 05:18:20;;;;;;;10.55;4.70;;;12.60;99.90;;;;;;4176887;28;20099;-62
2023/05/25 05:20:21;;;;;;;12.02;5.55;;;12.60;99.90;;;;;;4175208;28;20102;-62
2023/05/25 05:22:21;;;;;;;8.52;4.03;;;12.60;99.90;;;;;;4172522;28;20541;-62
2023/05/25 05:24:22;;;;;;;8.48;4.63;;;12.60;99.90;;;;;;4175640;28;20041;-62
2023/05/25 05:26:23;;;;;;;8.43;4.90;;;12.70;99.90;;;;;;4176428;28;20044;-63
2023/05/25 05:28:26;;;;;;;9.48;5.10;;;12.70;99.90;;;;;;4173849;28;20488;-64
2023/05/25 05:30:26;;;;;;;9.27;4.70;;;12.70;99.90;;;;;;4172322;28;20139;-63
2023/05/25 05:32:27;;;;;;;9.07;4.60;;;12.80;99.90;;;;;;4173033;28;20040;-63
2023/05/25 05:34:27;;;;;;;12.32;4.82;;;12.80;99.90;;;;;;4161871;28;20036;-62
2023/05/25 05:36:37;;;;;;;16.15;5.72;;;12.70;99.90;;;;;;4161206;27;20383;-62
2023/05/25 05:38:40;;;;;;;10.45;4.53;;;12.60;99.90;;;;;;4176701;28;20029;-63
2023/05/25 05:40:41;;;;;;;9.68;4.43;;;12.60;99.90;;;;;;4173544;28;20119;-63
2023/05/25 05:42:41;;;;;;;9.25;4.00;;;12.60;99.90;;;;;;4175306;28;20444;-62
2023/05/25 05:44:42;;;;;;;9.55;4.07;;;12.60;99.90;;;;;;4174698;28;20033;-62
2023/05/25 05:46:43;;;;;;;12.27;4.75;;;12.70;99.90;;;;;;4172515;28;20032;-62
2023/05/25 05:48:43;;;;;;;11.73;4.53;;;12.60;99.90;;;;;;4171890;28;20037;-63
2023/05/25 05:50:44;;;;;;;16.50;5.20;;;12.60;99.90;;;;;;4169785;28;20037;-64
2023/05/25 05:52:44;;;;;;;16.98;5.03;;;12.40;99.90;;;;;;4176546;28;20400;-64
2023/05/25 05:54:45;;;;;;;15.80;5.15;;;12.40;99.90;;;;;;4172915;28;20037;-65
2023/05/25 05:56:46;;;;;;;13.35;4.90;;;12.40;99.90;;;;;;4183694;28;20469;-64
2023/05/25 05:58:48;;;;;;;15.40;4.70;;;12.50;99.90;;;;;;4171808;28;20048;-66
2023/05/25 06:00:49;;;;;;;12.10;4.68;;;12.80;99.90;;;;;;4170819;28;20042;-65
2023/05/25 06:02:50;;;;;;;11.23;4.40;;;13.20;99.90;;;;;;4172038;28;20033;-65
2023/05/25 06:04:50;;;;;;;12.18;4.43;;;13.50;99.90;;;;;;4204134;28;20036;-66
2023/05/25 06:06:51;;;;;;;12.45;4.60;;;13.90;99.90;;;;;;4173295;28;20045;-65
2023/05/25 06:08:51;;;;;;;11.10;3.97;;;14.30;99.90;;;;;;4174752;28;20120;-65
2023/05/25 06:10:52;;;;;;;8.65;4.15;;;14.70;99.90;;;;;;4173337;28;20091;-65
2023/05/25 06:12:53;;;;;;;6.22;3.15;;;14.90;99.90;;;;;;4170342;28;20045;-65
2023/05/25 06:14:53;;;;;;;10.00;3.78;;;15.30;99.90;;;;;;4169468;28;20037;-65
2023/05/25 06:16:54;;;;;;;19.02;4.43;;;15.70;99.90;;;;;;4168875;28;20056;-66
2023/05/25 06:18:55;;;;;;;11.27;3.88;;;16.10;99.90;;;;;;4169420;28;20107;-66
2023/05/25 06:20:55;;;;;;;7.68;3.17;;;16.50;99.90;;;;;;4166817;28;20488;-65
2023/05/25 06:22:56;;;;;;;7.28;3.55;;;16.80;99.90;;;;;;4168992;28;20040;-65
2023/05/25 06:24:56;;;;;;;8.68;3.70;;;17.20;99.90;;;;;;4170516;28;20358;-66
2023/05/25 06:26:57;;;;;;;7.05;3.85;;;17.40;99.90;;;;;;4167769;28;20095;-65
2023/05/25 06:28:58;;;;;;;15.80;4.88;;;17.50;99.90;;;;;;4168961;28;20052;-66
2023/05/25 06:30:58;;;;;;;13.30;4.28;;;17.30;99.90;;;;;;4169099;28;20029;-66
2023/05/25 06:32:59;;;;;;;11.00;4.10;;;17.30;99.90;;;;;;4170334;28;20602;-66
2023/05/25 06:35:01;;;;;;;8.45;3.10;;;17.50;99.90;;;;;;4169093;28;20151;-65
2023/05/25 06:37:01;;;;;;;6.83;2.70;;;17.80;99.90;;;;;;4166381;28;20432;-66
2023/05/25 06:39:02;;;;;;;11.10;3.67;;;18.00;99.90;;;;;;4160640;28;20036;-66
2023/05/25 06:41:04;;;;;;;8.68;3.33;;;18.20;99.90;;;;;;4166110;28;20099;-66
2023/05/25 06:43:04;;;;;;;7.15;3.47;;;18.40;99.90;;;;;;4167615;28;20069;-66
2023/05/25 06:45:06;;;;;;;10.23;3.30;;;18.50;99.90;;;;;;4166852;28;20041;-66
2023/05/25 06:47:06;;;;;;;5.32;3.13;;;18.50;99.90;;;;;;4161332;28;20034;-66
2023/05/25 06:49:07;;;;;;;8.30;3.08;;;18.30;99.90;;;;;;4153837;28;20029;-66
2023/05/25 06:51:08;;;;;;;8.35;3.20;;;18.30;99.90;;;;;;4156497;28;20029;-66
2023/05/25 06:53:10;;;;;;;7.30;3.05;;;18.50;99.90;;;;;;4158442;28;20493;-66
2023/05/25 06:55:10;;;;;;;10.80;3.63;;;18.40;99.90;;;;;;4156565;28;20037;-66
2023/05/25 06:57:11;;;;;;;7.88;2.55;;;18.50;99.90;;;;;;4159131;28;20037;-66
2023/05/25 06:59:11;;;;;;;9.43;2.95;;;18.60;99.90;;;;;;4156603;28;20037;-66
2023/05/25 07:01:12;;;;;;;7.22;3.15;;;18.60;99.90;;;;;;4158556;28;20037;-66
2023/05/25 07:03:13;;;;;;;17.63;2.83;;;18.50;99.90;;;;;;4158841;28;20033;-66
2023/05/25 07:05:13;;;;;;;7.88;3.40;;;18.70;99.90;;;;;;4158682;28;20183;-66
2023/05/25 07:07:14;;;;;;;7.32;2.60;;;18.80;99.90;;;;;;4158038;28;20080;-66
2023/05/25 07:09:16;;;;;;;8.85;3.05;;;18.90;99.90;;;;;;4157101;28;20362;-66
2023/05/25 07:11:19;;;;;;;8.75;2.97;;;18.90;99.90;;;;;;4153584;28;20042;-66
2023/05/25 07:13:20;;;;;;;8.70;3.08;;;18.90;99.90;;;;;;4157771;28;20035;-66
2023/05/25 07:15:21;;;;;;;7.05;2.67;;;19.00;99.90;;;;;;4156951;28;20477;-66
2023/05/25 07:17:22;;;;;;;8.93;3.08;;;19.10;99.90;;;;;;4160731;28;20064;-66
2023/05/25 07:19:22;;;;;;;7.35;2.75;;;19.20;99.90;;;;;;4158227;28;20029;-66
2023/05/25 07:21:23;;;;;;;6.63;2.60;;;19.20;99.90;;;;;;4142413;28;20034;-66
2023/05/25 07:23:24;;;;;;;8.98;3.25;;;19.20;99.90;;;;;;4135256;28;20112;-66
2023/05/25 07:25:24;;;;;;;7.10;2.80;;;19.20;99.90;;;;;;4131047;28;20544;-66
2023/05/25 07:27:25;;;;;;;6.63;2.60;;;19.20;99.90;;;;;;4136078;28;20038;-66
2023/05/25 07:29:25;;;;;;;8.25;2.90;;;19.00;99.90;;;;;;4155605;28;20091;-67
2023/05/25 07:31:26;;;;;;;8.45;2.88;;;18.80;99.90;;;;;;4158877;28;20029;-66
2023/05/25 07:33:27;;;;;;;7.82;2.63;;;18.70;99.90;;;;;;4158179;28;20056;-66
2023/05/25 07:35:27;;;;;;;5.70;2.50;;;18.60;99.90;;;;;;4157134;28;20508;-66
2023/05/25 07:37:28;;;;;;;5.50;2.42;;;18.70;99.90;;;;;;4157876;28;20048;-66
2023/05/25 07:39:28;;;;;;;6.30;2.25;;;18.70;99.90;;;;;;4154992;28;20042;-67
2023/05/25 07:41:29;;;;;;;7.47;3.00;;;18.80;99.90;;;;;;4154944;28;20041;-66
2023/05/25 07:43:30;;;;;;;5.20;2.30;;;18.50;99.90;;;;;;4157441;28;20029;-66
2023/05/25 07:45:31;;;;;;;9.27;3.20;;;18.70;99.90;;;;;;4155247;28;21062;-66
2023/05/25 07:47:31;;;;;;;8.98;3.00;;;18.50;99.90;;;;;;4154721;28;20925;-66
2023/05/25 07:49:32;;;;;;;13.05;4.15;;;18.40;99.90;;;;;;4155179;28;20501;-65
2023/05/25 07:51:32;;;;;;;9.23;4.35;;;18.40;99.90;;;;;;4156243;28;20575;-65
2023/05/25 07:53:33;;;;;;;14.18;5.70;;;18.40;99.90;;;;;;4158584;28;20108;-66
2023/05/25 07:55:33;;;;;;;11.10;3.92;;;18.30;99.90;;;;;;4159598;28;20040;-66
2023/05/25 07:57:34;;;;;;;10.00;3.80;;;18.40;99.90;;;;;;4158472;28;20022;-66
2023/05/25 07:59:35;;;;;;;8.55;3.58;;;18.50;99.90;;;;;;4158732;28;20029;-66
2023/05/25 08:01:37;;;;;;;12.23;3.78;;;18.50;99.90;;;;;;4158303;28;20972;-66
2023/05/25 08:03:38;;;;;;;9.55;3.13;;;18.70;99.90;;;;;;4156311;28;20044;-65
2023/05/25 08:05:39;;;;;;;4.50;2.17;;;18.80;99.90;;;;;;4158502;28;20041;-65
2023/05/25 08:07:40;;;;;;;7.38;2.80;;;19.00;99.90;;;;;;4157855;28;20038;-66
2023/05/25 08:09:40;;;;;;;6.90;2.95;;;19.00;99.90;;;;;;4159271;28;20132;-66
2023/05/25 08:11:43;;;;;;;7.30;2.90;;;19.20;99.90;;;;;;4159726;28;20103;-66
2023/05/25 08:13:44;;;;;;;5.85;2.50;;;19.30;99.90;;;;;;4157781;28;20770;-66
2023/05/25 08:15:45;;;;;;;9.25;2.90;;;19.20;99.90;;;;;;4156786;28;20048;-66
2023/05/25 08:17:46;;;;;;;8.05;3.03;;;19.30;99.90;;;;;;4160752;28;20029;-66
2023/05/25 08:19:47;;;;;;;8.93;3.60;;;19.30;99.90;;;;;;4159155;28;20080;-66
2023/05/25 08:21:48;;;;;;;9.30;5.53;;;19.30;99.90;;;;;;4155673;28;20046;-66
2023/05/25 08:23:49;;;;;;;10.52;4.50;;;19.30;99.90;;;;;;4158902;28;20428;-66
2023/05/25 08:25:50;;;;;;;7.28;3.53;;;19.30;99.90;;;;;;4156778;28;20044;-66
2023/05/25 08:27:51;;;;;;;7.15;2.53;;;19.20;99.90;;;;;;4157509;28;20049;-65
2023/05/25 08:29:51;;;;;;;7.50;3.33;;;19.20;99.90;;;;;;4156240;28;20443;-66
2023/05/25 08:31:52;;;;;;;5.05;2.42;;;19.10;99.90;;;;;;4157039;28;20042;-66
2023/05/25 08:33:52;;;;;;;7.20;2.45;;;19.20;99.90;;;;;;4154231;28;20049;-65
2023/05/25 08:35:53;;;;;;;6.13;2.38;;;19.20;99.90;;;;;;4154673;28;20147;-66
2023/05/25 08:37:53;;;;;;;8.45;2.63;;;19.20;99.90;;;;;;4155280;28;20033;-65
2023/05/25 08:39:54;;;;;;;8.18;2.80;;;19.00;99.90;;;;;;4156492;28;20065;-65
2023/05/25 08:41:54;;;;;;;10.90;3.53;;;18.80;99.90;;;;;;4158340;28;20033;-65
2023/05/25 08:43:55;;;;;;;5.05;2.50;;;18.60;99.90;;;;;;4157489;28;20120;-65
2023/05/25 08:46:08;;;;;;;8.93;2.92;;;18.80;99.90;;;;;;4156387;28;20193;-65
2023/05/25 08:48:12;;;;;;;5.40;2.47;;;19.00;99.90;;;;;;4155748;28;20063;-66
2023/05/25 08:50:15;;;;;;;6.18;2.55;;;19.10;99.90;;;;;;4156884;28;20041;-66
2023/05/25 08:52:21;;;;;;;9.70;3.20;;;19.20;99.90;;;;;;4156565;28;21985;-66
2023/05/25 08:54:27;;;;;;;8.52;3.00;;;19.10;99.90;;;;;;4154941;28;20091;-65
2023/05/25 08:56:31;;;;;;;9.32;3.08;;;18.70;99.90;;;;;;4156355;28;20504;-66
2023/05/25 08:58:39;;;;;;;6.80;2.80;;;18.60;99.90;;;;;;4157207;28;20032;-65
2023/05/25 09:00:47;;;;;;;4.90;2.35;;;18.60;99.90;;;;;;4155787;28;20152;-66
2023/05/25 09:03:01;;;;;;;3.50;2.00;;;18.70;99.90;;;;;;4155778;28;20048;-66
2023/05/25 09:05:03;;;;;;;9.70;3.08;;;18.80;99.90;;;;;;4153868;28;20034;-66
2023/05/25 09:07:05;;;;;;;10.30;3.10;;;19.00;99.90;;;;;;4155146;28;20029;-66
2023/05/25 09:09:06;;;;;;;4.80;2.30;;;19.20;99.90;;;;;;4155321;28;20030;-66
2023/05/25 09:11:07;;;;;;;8.13;2.78;;;19.20;99.90;;;;;;4155452;28;20080;-67
2023/05/25 09:13:08;;;;;;;7.57;2.70;;;19.40;99.90;;;;;;4157873;28;20503;-67
2023/05/25 09:15:11;;;;;;;8.18;2.78;;;19.30;99.90;;;;;;4156938;28;20034;-66
2023/05/25 09:17:12;;;;;;;;;;;19.30;99.90;;;;;;4154897;28;20037;-67
2023/05/25 09:19:13;;;;;;;5.00;2.47;;;19.50;99.90;;;;;;4156371;28;19917;-66
2023/05/25 09:21:13;;;;;;;4.68;2.47;;;19.50;99.90;;;;;;4153593;28;20069;-66
2023/05/25 09:23:14;;;;;;;5.55;2.22;;;19.50;99.90;;;;;;4154539;28;20036;-66
2023/05/25 09:25:20;;;;;;;5.80;2.78;;;19.50;99.90;;;;;;4155956;28;20484;-66
2023/05/25 09:27:22;;;;;;;6.80;2.50;;;19.60;99.90;;;;;;4154356;28;20060;-66
2023/05/25 09:29:23;;;;;;;3.53;1.80;;;19.50;99.90;;;;;;4152755;28;20040;-65
2023/05/25 09:31:24;;;;;;;4.47;2.38;;;19.50;99.90;;;;;;4154553;28;20033;-65
2023/05/25 09:33:25;;;;;;;4.97;2.50;;;19.40;99.90;;;;;;4153726;28;20549;-66
2023/05/25 09:35:26;;;;;;;3.58;2.00;;;19.30;99.90;;;;;;4150826;28;20065;-66
2023/05/25 09:37:26;;;;;;;5.38;2.30;;;19.40;99.90;;;;;;4156718;28;20042;-66
2023/05/25 09:39:27;;;;;;;4.32;2.00;;;19.30;99.90;;;;;;4153914;28;20045;-67
2023/05/25 09:41:28;;;;;;;6.95;2.63;;;19.30;99.90;;;;;;4155344;28;20045;-66
2023/05/25 09:43:30;;;;;;;11.07;3.40;;;18.80;99.90;;;;;;4154431;28;20087;-66
2023/05/25 09:45:30;;;;;;;5.95;2.80;;;18.20;99.90;;;;;;4155083;28;20037;-66
2023/05/25 09:47:31;;;;;;;4.50;2.47;;;18.00;99.90;;;;;;4154339;28;20044;-66
2023/05/25 09:49:32;;;;;;;5.28;2.50;;;18.10;99.90;;;;;;4155963;28;20029;-66
2023/05/25 09:51:33;;;;;;;6.28;2.65;;;18.00;99.90;;;;;;4154556;28;20117;-66
2023/05/25 09:53:34;;;;;;;4.55;2.30;;;18.20;99.90;;;;;;4156505;28;20091;-65
2023/05/25 09:55:36;;;;;;;6.30;2.45;;;18.20;99.90;;;;;;4155243;28;20046;-66
2023/05/25 09:57:37;;;;;;;8.50;2.75;;;18.30;99.90;;;;;;4165584;28;20135;-66
2023/05/25 09:59:38;;;;;;;6.25;2.50;;;18.00;99.90;;;;;;4157164;28;20037;-66
2023/05/25 10:01:39;;;;;;;5.47;2.30;;;18.10;99.90;;;;;;4155634;28;20042;-66
2023/05/25 10:03:47;;;;;;;4.50;2.30;;;18.10;99.90;;;;;;4157735;28;20120;-66
2023/05/25 10:05:48;;;;;;;6.22;3.10;;;18.10;99.90;;;;;;4153205;28;20049;-66
2023/05/25 10:07:51;;;;;;;7.20;3.15;;;18.00;99.90;;;;;;4156029;28;20080;-66
2023/05/25 10:09:54;;;;;;;5.95;2.80;;;18.00;99.90;;;;;;4155961;28;20136;-66
2023/05/25 10:11:58;;;;;;;7.20;3.35;;;17.90;99.90;;;;;;4156225;28;20204;-65
2023/05/25 10:14:02;;;;;;;10.90;3.95;;;17.70;99.90;;;;;;4152860;28;20130;-66
2023/05/25 10:16:04;;;;;;;10.70;3.60;;;17.40;99.90;;;;;;4151373;28;20056;-66
2023/05/25 10:18:08;;;;;;;7.82;3.13;;;17.50;99.90;;;;;;4156626;28;20476;-66
2023/05/25 10:20:09;;;;;;;8.73;2.72;;;17.40;99.90;;;;;;4155385;28;20040;-67
2023/05/25 10:22:22;;;;;;;9.20;3.05;;;17.50;99.90;;;;;;4154568;28;20510;-66
2023/05/25 10:24:44;;;;;;;9.57;3.40;;;17.60;99.90;;;;;;4154778;28;20115;-66
2023/05/25 10:26:52;;;;;;;11.77;3.72;;;17.60;99.90;;;;;;4152201;28;20455;-66
2023/05/25 10:29:00;;;;;;;12.60;3.70;;;17.50;99.90;;;;;;4153377;28;20037;-66
2023/05/25 10:31:01;;;;;;;9.25;3.55;;;17.20;99.90;;;;;;4153006;28;20037;-66
2023/05/25 10:33:03;;;;;;;6.75;3.10;;;17.20;99.90;;;;;;4159342;28;20026;-66